createdAt,value
2019-05-25T00:01:32.651Z,14.44
2019-05-25T00:04:03.682Z,14.38
2019-05-25T00:06:34.722Z,14.32
2019-05-25T00:09:08.271Z,14.29
2019-05-25T00:11:39.263Z,14.29
2019-05-25T00:14:10.302Z,14.26
2019-05-25T00:16:41.388Z,14.21
2019-05-25T00:19:12.334Z,14.12
2019-05-25T00:21:43.265Z,14.05
2019-05-25T00:24:14.353Z,13.97
2019-05-25T00:26:45.181Z,13.99
2019-05-25T00:29:16.191Z,13.94
2019-05-25T00:31:47.231Z,13.90
2019-05-25T00:34:18.284Z,13.86
2019-05-25T00:36:49.137Z,13.84
2019-05-25T00:39:20.391Z,13.79
2019-05-25T00:41:51.363Z,13.75
2019-05-25T00:44:22.376Z,13.69
2019-05-25T00:46:53.411Z,13.60
2019-05-25T00:49:24.671Z,13.55
2019-05-25T00:51:55.582Z,13.50
2019-05-25T00:54:28.240Z,13.47
2019-05-25T00:56:59.703Z,13.42
2019-05-25T00:59:31.167Z,13.35
2019-05-25T01:02:02.346Z,13.36
2019-05-25T01:04:33.268Z,13.31
2019-05-25T01:07:04.226Z,13.30
2019-05-25T01:09:35.177Z,13.24
2019-05-25T01:12:06.266Z,13.21
2019-05-25T01:14:37.212Z,13.16
2019-05-25T01:17:08.175Z,13.16
2019-05-25T01:19:39.138Z,13.15
2019-05-25T01:22:10.059Z,13.12
2019-05-25T01:24:44.363Z,13.07
2019-05-25T01:27:13.383Z,12.99
2019-05-25T01:29:44.373Z,12.89
2019-05-25T01:32:15.784Z,12.84
2019-05-25T01:34:46.797Z,12.80
2019-05-25T01:37:17.867Z,12.67
2019-05-25T01:39:48.917Z,12.55
2019-05-25T01:42:20.170Z,12.45
2019-05-25T01:44:51.212Z,12.47
2019-05-25T01:47:22.299Z,12.49
2019-05-25T01:49:53.177Z,12.51
2019-05-25T01:52:24.167Z,12.47
2019-05-25T01:54:59.754Z,12.48
2019-05-25T01:57:27.774Z,12.50
2019-05-25T01:59:58.796Z,12.45
2019-05-25T02:02:29.959Z,12.46
2019-05-25T02:05:01.283Z,12.44
2019-05-25T02:07:32.858Z,12.43
2019-05-25T02:10:06.016Z,12.39
2019-05-25T02:12:37.022Z,12.37
2019-05-25T02:15:08.597Z,12.30
2019-05-25T02:17:39.625Z,12.24
2019-05-25T02:20:10.800Z,12.20
2019-05-25T02:22:41.662Z,12.13
2019-05-25T02:25:18.087Z,12.10
2019-05-25T02:27:45.322Z,12.07
2019-05-25T02:30:16.324Z,12.01
2019-05-25T02:32:47.320Z,12.00
2019-05-25T02:35:26.895Z,12.01
2019-05-25T02:37:58.734Z,11.95
2019-05-25T02:40:29.812Z,11.92
2019-05-25T02:43:00.840Z,11.88
2019-05-25T02:45:32.156Z,11.83
2019-05-25T02:48:03.933Z,11.82
2019-05-25T02:50:36.556Z,11.75
2019-05-25T02:53:10.513Z,11.66
2019-05-25T02:55:41.460Z,11.68
2019-05-25T02:58:12.428Z,11.65
2019-05-25T03:00:43.447Z,11.66
2019-05-25T03:03:14.372Z,11.68
2019-05-25T03:05:45.529Z,11.69
2019-05-25T03:08:16.581Z,11.73
2019-05-25T03:10:47.648Z,11.75
2019-05-25T03:13:18.935Z,11.70
2019-05-25T03:15:49.709Z,11.71
2019-05-25T03:18:20.644Z,11.75
2019-05-25T03:20:51.750Z,11.77
2019-05-25T03:23:22.641Z,11.78
2019-05-25T03:25:53.518Z,11.80
2019-05-25T03:28:28.006Z,11.84
2019-05-25T03:30:59.287Z,11.84
2019-05-25T03:33:30.232Z,11.87
2019-05-25T03:36:01.285Z,11.92
2019-05-25T03:38:32.271Z,11.92
2019-05-25T03:41:03.182Z,11.96
2019-05-25T03:43:34.304Z,11.96
2019-05-25T03:46:06.798Z,11.96
2019-05-25T03:48:38.027Z,11.96
2019-05-25T03:51:09.061Z,11.98
2019-05-25T03:53:40.116Z,11.99
2019-05-25T03:56:11.016Z,12.01
2019-05-25T03:58:41.924Z,12.04
2019-05-25T04:01:12.860Z,12.07
2019-05-25T04:03:43.720Z,12.12
2019-05-25T04:06:14.631Z,12.15
2019-05-25T04:08:45.618Z,12.20
2019-05-25T04:11:16.584Z,12.27
2019-05-25T04:13:47.580Z,12.28
2019-05-25T04:16:18.375Z,12.24
2019-05-25T04:18:49.298Z,12.26
2019-05-25T04:21:20.191Z,12.30
2019-05-25T04:23:51.095Z,12.36
2019-05-25T04:26:23.037Z,12.39
2019-05-25T04:28:54.002Z,12.38
2019-05-25T04:32:10.818Z,12.33
2019-05-25T04:34:41.849Z,12.41
2019-05-25T04:37:12.830Z,12.48
2019-05-25T04:39:43.997Z,12.53
2019-05-25T04:42:15.117Z,12.55
2019-05-25T04:44:46.191Z,12.54
2019-05-25T04:47:26.531Z,12.53
2019-05-25T04:49:49.966Z,12.56
2019-05-25T04:52:20.940Z,12.59
2019-05-25T04:54:52.159Z,12.63
2019-05-25T04:57:23.089Z,12.64
2019-05-25T04:59:54.015Z,12.63
2019-05-25T05:02:24.907Z,12.67
2019-05-25T05:04:55.905Z,12.67
2019-05-25T05:07:26.958Z,12.74
2019-05-25T05:10:02.536Z,12.77
2019-05-25T05:12:30.664Z,12.82
2019-05-25T05:15:01.600Z,12.87
2019-05-25T05:17:32.707Z,12.93
2019-05-25T05:20:03.787Z,12.97
2019-05-25T05:22:34.890Z,13.01
2019-05-25T05:25:10.539Z,13.06
2019-05-25T05:27:42.497Z,13.09
2019-05-25T05:30:13.533Z,13.09
2019-05-25T05:32:44.552Z,13.14
2019-05-25T05:35:15.525Z,13.20
2019-05-25T05:37:46.509Z,13.15
2019-05-25T05:40:17.730Z,13.14
2019-05-25T05:42:48.681Z,13.16
2019-05-25T05:45:19.625Z,13.22
2019-05-25T05:47:50.745Z,13.24
2019-05-25T05:50:21.816Z,13.30
2019-05-25T05:52:52.784Z,13.35
2019-05-25T05:55:32.149Z,13.31
2019-05-25T05:58:03.272Z,13.43
2019-05-25T06:00:34.266Z,13.51
2019-05-25T06:03:06.354Z,13.58
2019-05-25T06:05:37.362Z,13.62
2019-05-25T06:08:08.366Z,13.61
2019-05-25T06:10:39.443Z,13.66
2019-05-25T06:13:10.991Z,13.63
2019-05-25T06:18:51.455Z,13.72
2019-05-25T06:21:36.407Z,13.75
2019-05-25T06:24:07.361Z,13.67
2019-05-25T06:26:38.436Z,13.71
2019-05-25T06:29:09.488Z,13.77
2019-05-25T06:31:44.140Z,13.73
2019-05-25T06:34:14.354Z,13.79
2019-05-25T06:36:47.029Z,13.83
2019-05-25T06:39:18.115Z,13.86
2019-05-25T06:42:10.598Z,13.88
2019-05-25T06:44:41.758Z,13.80
2019-05-25T06:47:14.318Z,13.60
2019-05-25T06:49:45.651Z,13.63
2019-05-25T06:52:16.656Z,13.67
2019-05-25T06:54:47.667Z,13.53
2019-05-25T06:57:18.743Z,13.55
2019-05-25T06:59:49.732Z,13.66
2019-05-25T07:02:22.678Z,13.69
2019-05-25T07:04:53.480Z,13.76
2019-05-25T07:07:24.383Z,13.77
2019-05-25T07:09:55.317Z,13.66
2019-05-25T07:12:26.350Z,13.67
2019-05-25T07:14:57.373Z,13.62
2019-05-25T07:17:28.400Z,13.82
2019-05-25T07:19:59.435Z,13.89
2019-05-25T07:22:30.525Z,14.10
2019-05-25T07:25:01.619Z,14.33
2019-05-25T07:27:32.858Z,14.55
2019-05-25T07:30:07.240Z,14.65
2019-05-25T07:32:38.449Z,14.41
2019-05-25T07:35:09.512Z,14.22
2019-05-25T07:37:40.668Z,14.37
2019-05-25T07:40:12.669Z,14.67
2019-05-25T07:42:44.186Z,14.89
2019-05-25T07:45:16.041Z,14.93
2019-05-25T07:48:07.462Z,15.09
2019-05-25T07:50:38.552Z,15.24
2019-05-25T07:53:09.509Z,15.40
2019-05-25T07:55:40.501Z,15.58
2019-05-25T07:58:17.442Z,15.77
2019-05-25T08:00:44.308Z,15.61
2019-05-25T08:03:15.869Z,15.57
2019-05-25T08:05:47.161Z,15.68
2019-05-25T08:08:18.747Z,15.65
2019-05-25T08:10:50.992Z,15.53
2019-05-25T08:13:22.083Z,15.95
2019-05-25T08:15:53.111Z,16.36
2019-05-25T08:18:23.350Z,16.33
2019-05-25T08:26:00.790Z,17.19
2019-05-25T08:33:30.283Z,17.64
2019-05-25T08:36:01.413Z,17.62
2019-05-25T08:41:03.587Z,17.06
2019-05-25T08:43:34.834Z,16.42
2019-05-25T08:46:05.892Z,16.31
2019-05-25T08:51:08.596Z,16.69
2019-05-25T08:56:10.475Z,17.71
2019-05-25T08:58:49.027Z,18.20
2019-05-25T09:01:39.786Z,18.41
2019-05-25T09:04:11.056Z,17.81
2019-05-25T09:09:11.277Z,18.91
2019-05-25T09:11:42.178Z,19.18
2019-05-25T09:14:16.073Z,19.65
2019-05-25T09:16:47.204Z,19.65
2019-05-25T09:19:18.748Z,19.90
2019-05-25T09:24:17.630Z,18.95
2019-05-25T09:29:17.744Z,19.31
2019-05-25T09:34:25.377Z,19.78
2019-05-25T09:36:56.454Z,20.28
2019-05-25T09:41:56.717Z,20.10
2019-05-25T09:44:28.178Z,20.27
2019-05-25T09:46:59.118Z,20.32
2019-05-25T09:49:30.194Z,19.63
2019-05-25T09:52:01.206Z,19.07
2019-05-25T09:54:32.270Z,19.75
2019-05-25T09:57:03.229Z,20.26
2019-05-25T09:59:34.373Z,20.60
2019-05-25T10:02:06.334Z,21.04
2019-05-25T10:04:37.433Z,20.91
2019-05-25T10:07:08.435Z,20.53
2019-05-25T10:09:40.224Z,20.26
2019-05-25T10:12:11.491Z,19.79
2019-05-25T10:14:42.501Z,20.01
2019-05-25T10:17:13.547Z,20.84
2019-05-25T10:19:44.909Z,21.34
2019-05-25T10:22:15.965Z,21.32
2019-05-25T10:24:47.028Z,21.28
2019-05-25T10:27:18.118Z,21.05
2019-05-25T10:32:22.026Z,20.32
2019-05-25T10:34:57.441Z,21.06
2019-05-25T10:38:02.923Z,21.07
2019-05-25T10:40:34.206Z,21.39
2019-05-25T10:43:06.424Z,21.57
2019-05-25T10:45:37.692Z,21.82
2019-05-25T10:48:08.704Z,21.83
2019-05-25T10:50:39.775Z,22.23
2019-05-25T10:53:10.898Z,22.55
2019-05-25T10:55:41.950Z,22.63
2019-05-25T10:58:13.040Z,22.81
2019-05-25T11:00:44.114Z,22.62
2019-05-25T11:03:15.229Z,22.62
2019-05-25T11:05:46.453Z,22.62
2019-05-25T11:08:17.569Z,22.54
2019-05-25T11:10:48.540Z,22.43
2019-05-25T11:13:19.621Z,22.35
2019-05-25T11:15:50.642Z,22.52
2019-05-25T11:18:21.796Z,22.44
2019-05-25T11:20:53.187Z,22.66
2019-05-25T11:23:24.467Z,21.98
2019-05-25T11:25:56.088Z,21.81
2019-05-25T11:28:27.393Z,21.83
2019-05-25T11:30:58.496Z,21.91
2019-05-25T11:33:29.661Z,21.98
2019-05-25T11:36:00.727Z,21.89
2019-05-25T11:38:31.871Z,21.97
2019-05-25T11:41:02.849Z,22.19
2019-05-25T11:43:33.885Z,22.36
2019-05-25T11:46:06.375Z,22.12
2019-05-25T11:48:37.433Z,22.54
2019-05-25T11:51:08.782Z,22.82
2019-05-25T11:53:39.836Z,22.72
2019-05-25T11:56:39.604Z,22.76
2019-05-25T11:59:04.156Z,22.85
2019-05-25T12:01:35.151Z,22.60
2019-05-25T12:04:06.923Z,23.03
2019-05-25T12:06:38.473Z,23.02
2019-05-25T12:09:09.854Z,22.89
2019-05-25T12:11:40.891Z,22.41
2019-05-25T12:14:11.888Z,22.44
2019-05-25T12:16:42.977Z,21.76
2019-05-25T12:19:15.109Z,21.40
2019-05-25T12:24:20.660Z,21.33
2019-05-25T12:26:51.694Z,21.43
2019-05-25T12:32:03.402Z,22.06
2019-05-25T12:36:54.488Z,22.22
2019-05-25T12:39:26.751Z,22.40
2019-05-25T12:44:34.283Z,22.39
2019-05-25T12:49:48.525Z,22.14
2019-05-25T12:52:06.579Z,21.87
2019-05-25T12:54:39.283Z,21.92
2019-05-25T12:59:39.637Z,22.40
2019-05-25T13:02:10.763Z,22.79
2019-05-25T13:07:11.958Z,22.66
2019-05-25T13:09:43.157Z,22.65
2019-05-25T13:17:15.158Z,22.67
2019-05-25T13:22:15.252Z,23.26
2019-05-25T13:24:46.813Z,23.23
2019-05-25T13:27:19.133Z,23.34
2019-05-25T13:29:50.299Z,23.11
2019-05-25T13:32:21.437Z,23.37
2019-05-25T13:40:03.148Z,23.27
2019-05-25T13:45:06.273Z,23.41
2019-05-25T13:47:40.610Z,23.54
2019-05-25T13:55:10.604Z,23.36
2019-05-25T13:57:41.748Z,23.53
2019-05-25T14:00:13.006Z,23.81
2019-05-25T14:02:47.278Z,23.84
2019-05-25T14:05:18.352Z,24.11
2019-05-25T14:10:18.466Z,23.47
2019-05-25T14:15:18.287Z,23.48
2019-05-25T14:18:08.389Z,23.62
2019-05-25T14:23:12.524Z,23.60
2019-05-25T14:28:14.802Z,23.51
2019-05-25T14:30:46.282Z,23.21
2019-05-25T14:35:46.101Z,23.15
2019-05-25T14:38:17.397Z,23.13
2019-05-25T14:40:48.487Z,23.40
2019-05-25T14:43:21.035Z,23.59
2019-05-25T14:48:23.388Z,23.29
2019-05-25T14:53:25.291Z,23.40
2019-05-25T14:55:56.428Z,23.57
2019-05-25T15:00:56.725Z,23.59
2019-05-25T15:05:57.398Z,23.59
2019-05-25T15:08:30.959Z,23.61
2019-05-25T15:11:00.218Z,23.57
2019-05-25T15:16:00.880Z,23.54
2019-05-25T15:18:34.202Z,23.48
2019-05-25T15:21:10.258Z,23.09
2019-05-25T15:23:41.586Z,23.04
2019-05-25T15:26:12.716Z,23.14
2019-05-25T15:31:13.465Z,23.24
2019-05-25T15:36:13.591Z,23.44
2019-05-25T15:38:44.936Z,23.46
2019-05-25T15:43:47.147Z,23.61
2019-05-25T15:46:18.236Z,23.44
2019-05-25T15:51:25.482Z,23.39
2019-05-25T15:53:56.533Z,23.25
2019-05-25T15:58:57.280Z,23.04
2019-05-25T16:03:57.816Z,23.25
2019-05-25T16:06:28.969Z,23.13
2019-05-25T16:11:31.934Z,23.03
2019-05-25T16:14:02.479Z,22.71
2019-05-25T16:16:37.226Z,22.60
2019-05-25T16:19:11.882Z,22.49
2019-05-25T16:24:20.884Z,22.76
2019-05-25T16:26:52.063Z,22.81
2019-05-25T16:29:23.170Z,22.74
2019-05-25T16:31:54.403Z,22.69
2019-05-25T16:34:25.416Z,22.56
2019-05-25T16:39:26.980Z,22.23
2019-05-25T16:41:58.053Z,22.29
2019-05-25T16:44:29.168Z,22.35
2019-05-25T16:47:00.252Z,22.47
2019-05-25T16:49:31.715Z,22.58
2019-05-25T16:52:02.758Z,22.56
2019-05-25T16:54:33.847Z,22.34
2019-05-25T16:57:06.239Z,22.36
2019-05-25T16:59:38.099Z,21.98
2019-05-25T17:02:10.367Z,22.12
2019-05-25T17:04:42.073Z,22.02
2019-05-25T17:07:13.990Z,21.94
2019-05-25T17:09:45.101Z,21.91
2019-05-25T17:12:16.389Z,21.90
2019-05-25T17:14:47.634Z,21.85
2019-05-25T17:17:18.906Z,21.79
2019-05-25T17:19:50.198Z,21.74
2019-05-25T17:24:50.153Z,21.43
2019-05-25T17:27:25.492Z,21.46
2019-05-25T17:29:56.765Z,21.47
2019-05-25T17:32:28.495Z,21.52
2019-05-25T17:37:54.069Z,21.51
2019-05-25T17:45:07.617Z,21.36
2019-05-25T17:50:11.829Z,21.13
2019-05-25T17:52:43.721Z,20.88
2019-05-25T17:55:16.385Z,20.91
2019-05-25T17:57:47.640Z,20.93
2019-05-25T18:02:49.206Z,21.11
2019-05-25T18:05:20.319Z,20.96
2019-05-25T18:07:51.373Z,20.91
2019-05-25T18:10:24.520Z,20.93
2019-05-25T18:15:29.478Z,20.78
2019-05-25T18:18:11.711Z,20.68
2019-05-25T18:23:07.084Z,20.41
2019-05-25T18:25:39.514Z,20.39
2019-05-25T18:28:10.805Z,20.33
2019-05-25T18:30:42.151Z,20.22
2019-05-25T18:35:44.473Z,20.16
2019-05-25T18:41:06.842Z,20.08
2019-05-25T18:46:14.867Z,20.03
2019-05-25T18:49:17.051Z,19.85
2019-05-25T18:51:57.186Z,19.81
2019-05-25T18:59:26.707Z,19.74
2019-05-25T19:04:45.229Z,19.64
2019-05-25T19:09:44.824Z,19.51
2019-05-25T19:14:49.875Z,19.37
2019-05-25T19:19:53.076Z,19.28
2019-05-25T19:25:20.530Z,19.16
2019-05-25T19:30:20.899Z,19.01
2019-05-25T19:35:21.555Z,18.90
2019-05-25T19:40:22.775Z,18.81
2019-05-25T19:45:24.468Z,18.72
2019-05-25T19:47:55.572Z,18.65
2019-05-25T19:50:26.521Z,18.56
2019-05-25T19:52:58.103Z,18.51
2019-05-25T19:55:29.122Z,18.42
2019-05-25T19:58:00.109Z,18.32
2019-05-25T20:00:31.124Z,18.26
2019-05-25T20:03:02.034Z,18.12
2019-05-25T20:05:32.975Z,18.06
2019-05-25T20:08:04.063Z,17.97
2019-05-25T20:10:35.095Z,17.86
2019-05-25T20:13:06.299Z,17.81
2019-05-25T20:15:37.276Z,17.77
2019-05-25T20:18:08.284Z,17.73
2019-05-25T20:21:07.845Z,17.64
2019-05-25T20:24:21.743Z,17.56
2019-05-25T20:26:43.490Z,17.47
2019-05-25T20:29:45.854Z,17.38
2019-05-25T20:32:18.222Z,17.32
2019-05-25T20:34:52.439Z,17.27
2019-05-25T20:37:23.479Z,17.18
2019-05-25T20:39:54.641Z,17.11
2019-05-25T20:42:25.745Z,17.09
2019-05-25T20:44:56.855Z,16.99
2019-05-25T20:47:27.960Z,16.93
2019-05-25T20:49:59.036Z,16.83
2019-05-25T20:52:30.123Z,16.77
2019-05-25T20:55:01.478Z,16.70
2019-05-25T21:00:01.046Z,16.57
2019-05-25T21:02:32.354Z,16.51
2019-05-25T21:05:49.074Z,16.47
2019-05-25T21:08:17.906Z,16.41
2019-05-25T21:10:45.897Z,16.27
2019-05-25T21:13:16.861Z,16.18
2019-05-25T21:15:48.605Z,16.07
2019-05-25T21:18:32.144Z,15.98
2019-05-25T21:20:59.985Z,15.92
2019-05-25T21:23:30.996Z,15.83
2019-05-25T21:26:02.258Z,15.75
2019-05-25T21:28:36.738Z,15.68
2019-05-25T21:31:09.240Z,15.62
2019-05-25T21:33:40.311Z,15.54
2019-05-25T21:36:14.085Z,15.49
2019-05-25T21:38:49.896Z,15.46
2019-05-25T21:41:23.437Z,15.36
2019-05-25T21:43:56.930Z,15.33
2019-05-25T21:46:28.025Z,15.26
2019-05-25T21:48:59.505Z,15.23
2019-05-25T21:51:30.623Z,15.17
2019-05-25T21:54:01.743Z,15.14
2019-05-25T21:56:32.755Z,15.05
2019-05-25T21:59:04.204Z,15.00
2019-05-25T22:01:35.429Z,14.97
2019-05-25T22:04:06.426Z,14.93
2019-05-25T22:06:37.503Z,14.89
2019-05-25T22:09:09.274Z,14.86
2019-05-25T22:11:40.378Z,14.79
2019-05-25T22:14:11.436Z,14.71
2019-05-25T22:16:42.484Z,14.61
2019-05-25T22:19:13.562Z,14.53
2019-05-25T22:21:46.201Z,14.42
2019-05-25T22:24:17.524Z,14.30
2019-05-25T22:26:48.540Z,14.29
2019-05-25T22:29:19.603Z,14.30
2019-05-25T22:31:50.871Z,14.23
2019-05-25T22:34:30.873Z,14.21
2019-05-25T22:37:19.812Z,14.16
2019-05-25T22:39:51.346Z,14.11
2019-05-25T22:42:22.584Z,14.03
2019-05-25T22:45:02.091Z,13.96
2019-05-25T22:47:33.223Z,13.89
2019-05-25T22:50:04.328Z,13.85
2019-05-25T22:52:35.553Z,13.79
2019-05-25T22:55:06.890Z,13.79
2019-05-25T22:57:37.898Z,13.79
2019-05-25T23:00:10.065Z,13.75
2019-05-25T23:02:41.436Z,13.68
2019-05-25T23:05:12.497Z,13.66
2019-05-25T23:07:43.587Z,13.61
2019-05-25T23:10:14.608Z,13.57
2019-05-25T23:12:45.598Z,13.52
2019-05-25T23:15:16.824Z,13.51
2019-05-25T23:17:47.857Z,13.49
2019-05-25T23:20:18.898Z,13.46
2019-05-25T23:22:49.944Z,13.43
2019-05-25T23:25:21.003Z,13.33
2019-05-25T23:27:52.082Z,13.18
2019-05-25T23:30:23.460Z,13.15
2019-05-25T23:32:54.759Z,13.18
2019-05-25T23:35:26.194Z,13.18
2019-05-25T23:37:58.220Z,13.21
2019-05-25T23:40:29.143Z,13.20
2019-05-25T23:43:00.229Z,13.18
2019-05-25T23:45:31.313Z,13.12
2019-05-25T23:48:02.324Z,13.06
2019-05-25T23:50:33.364Z,13.00
2019-05-25T23:53:04.264Z,12.91
2019-05-25T23:55:35.279Z,12.83
2019-05-25T23:58:06.323Z,12.84
